Time;durP1;ratioP1;P1;durP2;ratioP2;P2;SDS_P1;SDS_P2;PMS_P1;PMS_P2;Temp;Humidity;BMP_temperature;BMP_pressure;BME280_temperature;BME280_humidity;BME280_pressure;Samples;Min_cycle;Max_cycle;Signal;HPM_P1;HPM_P2
2022/01/29 00:00:42;;;;;;;17.40;3.05;;;;;;;;;;4917181;29;20056;-75
2022/01/29 00:03:09;;;;;;;19.45;3.78;;;;;;;;;;4902943;29;20027;-75
2022/01/29 00:05:35;;;;;;;19.20;3.30;;;;;;;;;;4919618;29;20031;-75
2022/01/29 00:08:00;;;;;;;21.83;3.38;;;;;;;;;;4920805;29;20020;-75
2022/01/29 00:10:26;;;;;;;18.27;2.40;;;;;;;;;;4919898;29;20494;-75
2022/01/29 00:12:51;;;;;;;19.92;3.30;;;;;;;;;;4902070;29;20529;-75
2022/01/29 00:15:16;;;;;;;19.38;2.88;;;;;;;;;;4919482;29;20024;-75
2022/01/29 00:17:41;;;;;;;15.30;2.40;;;;;;;;;;4918746;29;20449;-75
2022/01/29 00:20:07;;;;;;;16.25;2.40;;;;;;;;;;4919597;29;20024;-75
2022/01/29 00:22:32;;;;;;;23.63;2.53;;;;;;;;;;4917593;29;20028;-75
2022/01/29 00:24:58;;;;;;;15.02;2.80;;;;;;;;;;4917818;29;20522;-75
2022/01/29 00:27:26;;;;;;;20.05;2.10;;;;;;;;;;4919345;29;20040;-75
2022/01/29 00:29:51;;;;;;;20.73;2.28;;;;;;;;;;4900837;29;20091;-75
2022/01/29 00:32:16;;;;;;;13.07;2.40;;;;;;;;;;4934398;29;20489;-75
2022/01/29 00:34:41;;;;;;;14.55;2.33;;;;;;;;;;4920999;29;20401;-75
2022/01/29 00:37:07;;;;;;;15.20;2.55;;;;;;;;;;4926803;29;20028;-75
2022/01/29 00:39:32;;;;;;;20.38;3.33;;;;;;;;;;4905808;29;20498;-75
2022/01/29 00:41:57;;;;;;;12.35;2.25;;;;;;;;;;4929905;29;20026;-75
2022/01/29 00:44:23;;;;;;;16.77;2.67;;;;;;;;;;4931513;29;20020;-75
2022/01/29 00:46:48;;;;;;;10.95;2.03;;;;;;;;;;4901514;29;20019;-74
2022/01/29 00:49:14;;;;;;;18.27;2.65;;;;;;;;;;4918883;29;20024;-75
2022/01/29 00:51:39;;;;;;;15.63;3.30;;;;;;;;;;4921066;29;20035;-75
2022/01/29 00:54:04;;;;;;;12.27;2.03;;;;;;;;;;4919359;29;20033;-76
2022/01/29 00:56:30;;;;;;;11.60;2.22;;;;;;;;;;4919938;29;20051;-75
2022/01/29 00:58:55;;;;;;;7.72;1.80;;;;;;;;;;4921349;29;20032;-75
2022/01/29 01:01:20;;;;;;;10.07;2.40;;;;;;;;;;4905264;29;20457;-75
2022/01/29 01:03:45;;;;;;;14.80;2.40;;;;;;;;;;4904536;29;20512;-75
2022/01/29 01:06:11;;;;;;;8.98;2.17;;;;;;;;;;4905768;29;20385;-75
2022/01/29 01:08:36;;;;;;;16.65;2.30;;;;;;;;;;4929110;29;20039;-75
2022/01/29 01:11:03;;;;;;;9.05;2.00;;;;;;;;;;4924038;29;20034;-75
2022/01/29 01:13:29;;;;;;;17.27;1.88;;;;;;;;;;4902445;29;20024;-75
2022/01/29 01:15:54;;;;;;;14.40;2.53;;;;;;;;;;4918401;29;20055;-75
2022/01/29 01:18:19;;;;;;;14.68;2.72;;;;;;;;;;4918622;29;20035;-75
2022/01/29 01:20:44;;;;;;;11.30;1.90;;;;;;;;;;4901941;29;20052;-75
2022/01/29 01:23:10;;;;;;;17.30;2.95;;;;;;;;;;4918526;29;20264;-76
2022/01/29 01:25:35;;;;;;;10.05;2.10;;;;;;;;;;4918803;29;20020;-76
2022/01/29 01:28:00;;;;;;;12.32;2.40;;;;;;;;;;4918085;29;20394;-75
2022/01/29 01:30:25;;;;;;;23.90;2.80;;;;;;;;;;4903157;29;20412;-76
2022/01/29 01:32:51;;;;;;;15.55;2.95;;;;;;;;;;4921135;29;20024;-76
2022/01/29 01:35:22;;;;;;;15.70;2.33;;;;;;;;;;4922660;29;20104;-76
2022/01/29 01:38:13;;;;;;;9.18;1.98;;;;;;;;;;4922136;29;20028;-76
2022/01/29 01:40:36;;;;;;;15.00;2.67;;;;;;;;;;4920708;29;20060;-75
2022/01/29 01:43:02;;;;;;;11.35;1.85;;;;;;;;;;4902854;29;20290;-75
2022/01/29 01:45:27;;;;;;;10.73;2.63;;;;;;;;;;4920335;29;20024;-75
2022/01/29 01:47:53;;;;;;;15.55;3.03;;;;;;;;;;4921844;29;20020;-75
2022/01/29 01:50:18;;;;;;;15.77;2.42;;;;;;;;;;4901800;29;20508;-75
2022/01/29 01:52:43;;;;;;;12.38;2.53;;;;;;;;;;4919402;29;20020;-75
2022/01/29 01:55:09;;;;;;;20.52;2.90;;;;;;;;;;4919981;29;20103;-75
2022/01/29 01:57:34;;;;;;;13.48;2.65;;;;;;;;;;4920023;29;20092;-75
2022/01/29 01:59:59;;;;;;;17.05;2.55;;;;;;;;;;4919883;29;20028;-75
2022/01/29 02:02:24;;;;;;;17.92;2.95;;;;;;;;;;4919703;29;20042;-75
2022/01/29 02:04:50;;;;;;;14.30;2.50;;;;;;;;;;4919652;29;20068;-75
2022/01/29 02:07:16;;;;;;;14.05;2.08;;;;;;;;;;4919781;29;20512;-75
2022/01/29 02:09:41;;;;;;;11.85;2.22;;;;;;;;;;4918502;29;20032;-76
2022/01/29 02:12:09;;;;;;;11.38;1.92;;;;;;;;;;4918464;29;20024;-75
2022/01/29 02:14:35;;;;;;;13.43;2.92;;;;;;;;;;4903464;29;20032;-75
2022/01/29 02:17:00;;;;;;;11.52;2.25;;;;;;;;;;4921080;29;20028;-75
2022/01/29 02:19:25;;;;;;;12.90;2.42;;;;;;;;;;4903887;29;20504;-75
2022/01/29 02:21:51;;;;;;;17.35;3.33;;;;;;;;;;4919764;29;20676;-75
2022/01/29 02:24:16;;;;;;;18.15;3.67;;;;;;;;;;4902131;29;20024;-75
2022/01/29 02:26:41;;;;;;;11.68;2.50;;;;;;;;;;4918819;29;20477;-76
2022/01/29 02:29:07;;;;;;;9.65;1.98;;;;;;;;;;4917766;29;20024;-75
2022/01/29 02:31:32;;;;;;;11.95;2.40;;;;;;;;;;4917715;29;20487;-75
2022/01/29 02:33:57;;;;;;;19.45;3.25;;;;;;;;;;4900438;29;20020;-75
2022/01/29 02:36:23;;;;;;;11.95;2.55;;;;;;;;;;4918188;29;20043;-76
2022/01/29 02:38:48;;;;;;;12.80;2.92;;;;;;;;;;4900423;29;20409;-76
2022/01/29 02:41:13;;;;;;;14.77;3.60;;;;;;;;;;4917379;29;20024;-76
2022/01/29 02:43:47;;;;;;;14.45;2.40;;;;;;;;;;4917632;29;20466;-75
2022/01/29 02:48:47;;;;;;;17.13;2.70;;;;;;;;;;4917920;29;20024;-75
2022/01/29 02:51:13;;;;;;;12.15;2.72;;;;;;;;;;4917956;29;20028;-76
2022/01/29 02:53:38;;;;;;;13.50;2.85;;;;;;;;;;4901907;29;20028;-75
2022/01/29 02:56:03;;;;;;;13.38;2.60;;;;;;;;;;4917848;29;20059;-76
2022/01/29 02:58:28;;;;;;;16.13;2.88;;;;;;;;;;4918369;29;20446;-76
2022/01/29 03:00:54;;;;;;;12.90;2.78;;;;;;;;;;4918127;29;20374;-76
2022/01/29 03:03:19;;;;;;;18.13;3.03;;;;;;;;;;4917066;29;20112;-75
2022/01/29 03:05:45;;;;;;;12.82;2.28;;;;;;;;;;4916731;29;20020;-75
2022/01/29 03:08:10;;;;;;;8.48;2.58;;;;;;;;;;4917234;29;20028;-74
2022/01/29 03:10:35;;;;;;;17.60;2.90;;;;;;;;;;4902285;29;20031;-73
2022/01/29 03:13:01;;;;;;;11.50;2.50;;;;;;;;;;4901998;29;20401;-76
2022/01/29 03:15:26;;;;;;;16.42;2.83;;;;;;;;;;4918965;29;20032;-75
2022/01/29 03:17:52;;;;;;;16.52;3.67;;;;;;;;;;4918878;29;20488;-73
2022/01/29 03:20:17;;;;;;;16.00;3.08;;;;;;;;;;4901981;29;20111;-76
2022/01/29 03:22:42;;;;;;;17.10;3.05;;;;;;;;;;4919001;29;20048;-74
2022/01/29 03:25:08;;;;;;;21.00;2.50;;;;;;;;;;4919103;29;20031;-75
2022/01/29 03:27:33;;;;;;;17.42;2.55;;;;;;;;;;4919302;29;20116;-76
2022/01/29 03:29:58;;;;;;;13.55;2.70;;;;;;;;;;4919556;29;20454;-75
2022/01/29 03:32:23;;;;;;;14.98;2.50;;;;;;;;;;4918824;29;20043;-76
2022/01/29 03:34:48;;;;;;;16.67;2.67;;;;;;;;;;4918374;29;20021;-75
2022/01/29 03:37:14;;;;;;;8.75;2.17;;;;;;;;;;4918249;29;20533;-74
2022/01/29 03:39:42;;;;;;;9.73;2.28;;;;;;;;;;4901411;29;20031;-75
2022/01/29 03:42:09;;;;;;;12.20;2.43;;;;;;;;;;4918658;29;20039;-75
2022/01/29 03:44:34;;;;;;;11.38;2.80;;;;;;;;;;4919152;29;20266;-75
2022/01/29 03:46:59;;;;;;;12.27;2.70;;;;;;;;;;4919244;29;20020;-76
2022/01/29 03:49:24;;;;;;;11.75;2.70;;;;;;;;;;4935156;29;20024;-74
2022/01/29 03:51:50;;;;;;;6.53;2.45;;;;;;;;;;4905404;29;20503;-75
2022/01/29 03:54:15;;;;;;;11.60;2.22;;;;;;;;;;4902409;29;20063;-76
2022/01/29 03:56:40;;;;;;;14.88;2.35;;;;;;;;;;4918854;29;20552;-76
2022/01/29 03:59:05;;;;;;;14.30;3.30;;;;;;;;;;4918620;29;20075;-75
2022/01/29 04:01:31;;;;;;;14.52;3.17;;;;;;;;;;4918269;29;20030;-75
2022/01/29 04:03:57;;;;;;;11.07;2.47;;;;;;;;;;4918442;29;20146;-75
2022/01/29 04:06:22;;;;;;;7.78;2.22;;;;;;;;;;4937209;23;20821;-79
2022/01/29 04:08:47;;;;;;;8.60;1.98;;;;;;;;;;4938855;29;20605;-78
2022/01/29 04:11:14;;;;;;;9.20;2.42;;;;;;;;;;4939661;29;20026;-79
2022/01/29 04:13:42;;;;;;;13.32;3.15;;;;;;;;;;4939982;29;20055;-79
2022/01/29 04:16:07;;;;;;;13.98;3.08;;;;;;;;;;4938204;29;20028;-77
2022/01/29 04:18:33;;;;;;;17.45;3.40;;;;;;;;;;4920925;29;20091;-78
2022/01/29 04:20:58;;;;;;;6.63;2.50;;;;;;;;;;4919986;29;20505;-77
2022/01/29 04:23:23;;;;;;;13.07;2.47;;;;;;;;;;4920604;29;20048;-77
2022/01/29 04:25:52;;;;;;;6.80;2.30;;;;;;;;;;4921832;29;20020;-78
2022/01/29 04:28:17;;;;;;;5.32;1.95;;;;;;;;;;4904647;29;20024;-78
2022/01/29 04:30:47;;;;;;;11.95;2.65;;;;;;;;;;4905307;29;20035;-78
2022/01/29 04:35:43;;;;;;;9.80;2.50;;;;;;;;;;4921003;29;20032;-77
2022/01/29 04:38:09;;;;;;;6.13;2.15;;;;;;;;;;4922268;29;20028;-79
2022/01/29 04:40:35;;;;;;;5.95;2.28;;;;;;;;;;4921737;29;20012;-78
2022/01/29 04:43:01;;;;;;;12.18;2.50;;;;;;;;;;4920566;29;20032;-77
2022/01/29 04:45:26;;;;;;;15.60;2.80;;;;;;;;;;4921473;29;20059;-78
2022/01/29 04:47:51;;;;;;;10.63;2.95;;;;;;;;;;4920328;29;20016;-78
2022/01/29 04:50:16;;;;;;;11.85;2.55;;;;;;;;;;4920303;29;20071;-77
2022/01/29 04:52:41;;;;;;;12.52;2.97;;;;;;;;;;4920518;29;20063;-79
2022/01/29 04:55:07;;;;;;;10.00;2.63;;;;;;;;;;4919720;29;20371;-78
2022/01/29 04:57:32;;;;;;;11.50;2.47;;;;;;;;;;4919011;29;20027;-78
2022/01/29 04:59:59;;;;;;;9.45;2.38;;;;;;;;;;4919671;29;20024;-77
2022/01/29 05:02:24;;;;;;;10.95;3.17;;;;;;;;;;4901218;29;20028;-78
2022/01/29 05:04:49;;;;;;;9.18;2.45;;;;;;;;;;4918687;29;20023;-78
2022/01/29 05:07:14;;;;;;;8.23;2.83;;;;;;;;;;4918243;29;20087;-78
2022/01/29 05:09:40;;;;;;;7.50;2.78;;;;;;;;;;4918495;29;20146;-78
2022/01/29 05:12:06;;;;;;;10.65;3.13;;;;;;;;;;4918328;29;20127;-78
2022/01/29 05:14:51;;;;;;;6.32;2.55;;;;;;;;;;4919117;29;20055;-78
2022/01/29 05:28:02;;;;;;;10.90;2.70;;;;;;;;;;4920426;29;20050;-79
2022/01/29 05:30:27;;;;;;;7.43;2.55;;;;;;;;;;4919790;29;20553;-78
2022/01/29 05:32:52;;;;;;;11.55;3.13;;;;;;;;;;4902126;29;20052;-77
2022/01/29 05:35:18;;;;;;;9.75;3.63;;;;;;;;;;4902191;29;20019;-77
2022/01/29 05:37:43;;;;;;;16.02;3.33;;;;;;;;;;4919097;29;20024;-77
2022/01/29 05:40:08;;;;;;;9.65;3.13;;;;;;;;;;4918746;29;20028;-79
2022/01/29 05:42:33;;;;;;;6.88;3.33;;;;;;;;;;4902352;29;20024;-79
2022/01/29 05:44:59;;;;;;;18.90;4.43;;;;;;;;;;4919717;29;20020;-79
2022/01/29 05:47:24;;;;;;;10.65;3.38;;;;;;;;;;4918046;29;20023;-78
2022/01/29 05:49:49;;;;;;;10.15;3.67;;;;;;;;;;4917388;29;20115;-77
2022/01/29 05:52:15;;;;;;;10.05;3.55;;;;;;;;;;4900664;29;20032;-78
2022/01/29 05:54:40;;;;;;;11.88;3.85;;;;;;;;;;4900416;29;20028;-78
2022/01/29 05:57:05;;;;;;;9.73;3.47;;;;;;;;;;4917665;29;20031;-77
2022/01/29 05:59:34;;;;;;;11.23;3.90;;;;;;;;;;4901298;29;20020;-77
2022/01/29 06:02:00;;;;;;;10.48;3.72;;;;;;;;;;4919039;29;20020;-77
2022/01/29 06:04:25;;;;;;;14.48;4.47;;;;;;;;;;4918203;29;20024;-77
2022/01/29 06:06:50;;;;;;;10.82;4.55;;;;;;;;;;4918152;29;20024;-78
2022/01/29 06:09:15;;;;;;;11.45;5.05;;;;;;;;;;4919334;29;20016;-77
2022/01/29 06:11:40;;;;;;;14.35;4.95;;;;;;;;;;4920915;29;20332;-78
2022/01/29 06:14:06;;;;;;;13.52;5.00;;;;;;;;;;4919209;29;20039;-78
2022/01/29 06:16:31;;;;;;;14.38;5.60;;;;;;;;;;4918895;29;20471;-78
2022/01/29 06:18:56;;;;;;;15.30;6.07;;;;;;;;;;4918373;29;20453;-78
2022/01/29 06:21:21;;;;;;;12.77;5.70;;;;;;;;;;4918538;29;20442;-78
2022/01/29 06:23:47;;;;;;;17.90;6.10;;;;;;;;;;4900996;29;20020;-78
2022/01/29 06:26:12;;;;;;;12.55;5.10;;;;;;;;;;4900652;29;20434;-78
2022/01/29 06:28:38;;;;;;;18.63;7.15;;;;;;;;;;4917944;29;20024;-79
2022/01/29 06:31:04;;;;;;;17.05;8.07;;;;;;;;;;4918358;29;20466;-79
2022/01/29 06:33:30;;;;;;;21.35;7.72;;;;;;;;;;4919871;29;20028;-80
2022/01/29 06:35:55;;;;;;;14.05;6.70;;;;;;;;;;4905585;29;20024;-79
2022/01/29 06:38:21;;;;;;;14.80;6.30;;;;;;;;;;4930845;29;20083;-78
2022/01/29 06:40:46;;;;;;;15.57;6.55;;;;;;;;;;4930672;29;20322;-77
2022/01/29 06:43:11;;;;;;;18.92;7.47;;;;;;;;;;4936614;29;20015;-78
2022/01/29 06:45:38;;;;;;;15.90;7.40;;;;;;;;;;4927764;29;20028;-79
2022/01/29 06:48:03;;;;;;;12.73;6.97;;;;;;;;;;4930239;29;20024;-79
2022/01/29 06:50:29;;;;;;;16.75;7.13;;;;;;;;;;4927885;29;20056;-81
2022/01/29 06:52:54;;;;;;;17.17;8.07;;;;;;;;;;4928262;29;20024;-80
2022/01/29 06:55:20;;;;;;;11.93;5.32;;;;;;;;;;4927236;29;20020;-81
2022/01/29 06:57:45;;;;;;;23.60;8.45;;;;;;;;;;4909063;29;20084;-80
2022/01/29 07:00:11;;;;;;;19.05;7.97;;;;;;;;;;4926420;29;20111;-81
2022/01/29 07:02:36;;;;;;;17.83;7.45;;;;;;;;;;4930376;29;20016;-81
2022/01/29 07:05:02;;;;;;;17.23;7.35;;;;;;;;;;4932783;29;20386;-82
2022/01/29 07:07:28;;;;;;;24.75;8.02;;;;;;;;;;4914129;29;20043;-82
2022/01/29 07:09:53;;;;;;;21.42;8.02;;;;;;;;;;4916238;29;20050;-82
2022/01/29 07:12:18;;;;;;;24.27;7.65;;;;;;;;;;4917542;29;20096;-81
2022/01/29 07:14:43;;;;;;;20.10;8.65;;;;;;;;;;4935032;29;20031;-83
2022/01/29 07:17:10;;;;;;;19.02;8.55;;;;;;;;;;4938054;29;20023;-83
2022/01/29 07:19:35;;;;;;;21.08;8.05;;;;;;;;;;4935503;29;20035;-81
2022/01/29 07:22:01;;;;;;;29.73;8.05;;;;;;;;;;4919890;29;20088;-83
2022/01/29 07:24:26;;;;;;;18.98;8.35;;;;;;;;;;4942010;29;20080;-85
2022/01/29 07:26:51;;;;;;;19.45;7.20;;;;;;;;;;4941821;29;20007;-84
2022/01/29 07:29:17;;;;;;;19.60;7.30;;;;;;;;;;4925956;29;20091;-82
2022/01/29 07:31:42;;;;;;;17.98;7.55;;;;;;;;;;4938463;29;20024;-82
2022/01/29 07:34:07;;;;;;;21.48;8.10;;;;;;;;;;4937191;29;20020;-82
2022/01/29 07:36:33;;;;;;;17.20;7.45;;;;;;;;;;4937303;29;20044;-83
2022/01/29 07:38:58;;;;;;;19.67;8.00;;;;;;;;;;4940082;29;20017;-83
2022/01/29 07:41:23;;;;;;;20.63;7.70;;;;;;;;;;4924073;29;20040;-83
2022/01/29 07:43:49;;;;;;;19.33;7.55;;;;;;;;;;4923165;29;20025;-83
2022/01/29 07:46:14;;;;;;;16.92;8.43;;;;;;;;;;4940660;29;20024;-83
2022/01/29 07:48:39;;;;;;;19.90;7.78;;;;;;;;;;4939678;29;20003;-83
2022/01/29 07:51:05;;;;;;;16.70;6.80;;;;;;;;;;4924337;29;20021;-83
2022/01/29 07:53:30;;;;;;;15.45;6.97;;;;;;;;;;4939982;29;20035;-83
2022/01/29 07:55:55;;;;;;;21.08;7.35;;;;;;;;;;4927719;29;20020;-81
2022/01/29 07:58:20;;;;;;;17.77;7.65;;;;;;;;;;4926478;29;20028;-80
2022/01/29 08:00:46;;;;;;;18.55;7.80;;;;;;;;;;4925769;29;20028;-81
2022/01/29 08:03:11;;;;;;;17.17;7.13;;;;;;;;;;4923380;29;20099;-80
2022/01/29 08:05:36;;;;;;;17.80;8.13;;;;;;;;;;4924609;29;20103;-81
2022/01/29 08:08:01;;;;;;;18.48;6.22;;;;;;;;;;4925868;29;20024;-80
2022/01/29 08:10:26;;;;;;;23.35;6.65;;;;;;;;;;4910375;29;20020;-81
2022/01/29 08:12:52;;;;;;;15.10;6.68;;;;;;;;;;4936598;29;20020;-82
2022/01/29 08:15:17;;;;;;;16.15;6.95;;;;;;;;;;4939396;29;20024;-80
2022/01/29 08:17:42;;;;;;;23.55;7.40;;;;;;;;;;4935054;29;20023;-80
2022/01/29 08:20:08;;;;;;;25.00;8.35;;;;;;;;;;4933771;29;20056;-81
2022/01/29 08:22:33;;;;;;;25.92;8.15;;;;;;;;;;4919383;29;20055;-82
2022/01/29 08:24:59;;;;;;;24.35;8.85;;;;;;;;;;4919940;29;20028;-83
2022/01/29 08:27:24;;;;;;;19.92;8.70;;;;;;;;;;4935572;29;20024;-83
2022/01/29 08:29:50;;;;;;;20.23;8.40;;;;;;;;;;4932379;29;20045;-81
2022/01/29 08:32:15;;;;;;;17.38;8.18;;;;;;;;;;4914812;29;20024;-82
2022/01/29 08:34:43;;;;;;;20.75;7.97;;;;;;;;;;4916910;29;20024;-80
2022/01/29 08:37:08;;;;;;;24.67;8.70;;;;;;;;;;4929920;29;20020;-80
2022/01/29 08:39:34;;;;;;;18.70;7.82;;;;;;;;;;4937981;29;20088;-82
2022/01/29 08:41:59;;;;;;;19.13;7.95;;;;;;;;;;4923986;29;20029;-80
2022/01/29 08:44:24;;;;;;;20.67;8.55;;;;;;;;;;4924013;29;20024;-81
2022/01/29 08:46:50;;;;;;;21.02;8.35;;;;;;;;;;4933486;29;20020;-82
2022/01/29 08:49:15;;;;;;;21.73;7.97;;;;;;;;;;4923375;29;20012;-79
2022/01/29 08:51:41;;;;;;;21.95;9.32;;;;;;;;;;4922251;29;20083;-79
2022/01/29 08:54:07;;;;;;;24.98;8.85;;;;;;;;;;4921358;29;20012;-81
2022/01/29 08:56:32;;;;;;;22.30;8.73;;;;;;;;;;4915099;29;20068;-80
2022/01/29 08:58:57;;;;;;;17.40;7.47;;;;;;;;;;4912826;29;20035;-82
2022/01/29 09:01:25;;;;;;;19.80;8.43;;;;;;;;;;4916156;29;20548;-82
2022/01/29 09:03:50;;;;;;;21.05;8.38;;;;;;;;;;4910735;29;20508;-81
2022/01/29 09:06:16;;;;;;;16.25;7.88;;;;;;;;;;4923641;29;20047;-83
2022/01/29 09:08:50;;;;;;;17.50;6.90;;;;;;;;;;4927552;29;20048;-81
2022/01/29 09:11:16;;;;;;;13.75;5.82;;;;;;;;;;4927763;29;20035;-81
2022/01/29 09:13:41;;;;;;;14.65;6.60;;;;;;;;;;4906037;29;20032;-80
2022/01/29 09:16:06;;;;;;;18.05;7.00;;;;;;;;;;4921684;29;20362;-82
2022/01/29 09:18:32;;;;;;;14.48;5.57;;;;;;;;;;4925006;29;20035;-80
2022/01/29 09:20:57;;;;;;;15.65;7.10;;;;;;;;;;4930577;29;20031;-82
2022/01/29 09:23:22;;;;;;;17.20;6.57;;;;;;;;;;4906904;29;20020;-81
2022/01/29 09:25:48;;;;;;;12.88;5.93;;;;;;;;;;4923556;29;20031;-80
2022/01/29 09:28:13;;;;;;;13.57;6.10;;;;;;;;;;4939590;29;20099;-79
2022/01/29 09:30:39;;;;;;;10.30;5.32;;;;;;;;;;4939658;29;20052;-79
2022/01/29 09:33:04;;;;;;;16.73;6.82;;;;;;;;;;4939406;29;20020;-79
2022/01/29 09:35:30;;;;;;;16.95;5.75;;;;;;;;;;4925237;29;20012;-80
2022/01/29 09:37:55;;;;;;;14.57;6.28;;;;;;;;;;4913044;29;20028;-80
2022/01/29 09:40:21;;;;;;;15.15;7.05;;;;;;;;;;4923711;29;20418;-83
2022/01/29 09:42:49;;;;;;;12.55;6.63;;;;;;;;;;4923259;29;20525;-80
2022/01/29 09:45:15;;;;;;;13.85;5.57;;;;;;;;;;4921501;29;20020;-80
2022/01/29 09:47:41;;;;;;;12.93;5.45;;;;;;;;;;4920763;29;20023;-79
2022/01/29 09:50:07;;;;;;;13.13;5.45;;;;;;;;;;4924749;29;20035;-80
2022/01/29 09:52:32;;;;;;;15.10;6.38;;;;;;;;;;4918559;29;20028;-81
2022/01/29 09:54:58;;;;;;;13.20;5.43;;;;;;;;;;4920747;29;20016;-81
2022/01/29 09:57:24;;;;;;;12.75;5.35;;;;;;;;;;4905792;29;20024;-81
2022/01/29 09:59:50;;;;;;;10.05;5.32;;;;;;;;;;4905086;29;20020;-81
2022/01/29 10:02:17;;;;;;;14.93;6.97;;;;;;;;;;4919186;29;20470;-80
2022/01/29 10:04:49;;;;;;;13.32;5.72;;;;;;;;;;4921440;29;20047;-82
2022/01/29 10:07:19;;;;;;;11.13;5.35;;;;;;;;;;4921185;29;20032;-79
2022/01/29 10:09:44;;;;;;;8.63;4.00;;;;;;;;;;4920778;29;20478;-80
2022/01/29 10:12:19;;;;;;;10.55;5.43;;;;;;;;;;4903457;29;20020;-79
2022/01/29 10:14:48;;;;;;;10.30;5.10;;;;;;;;;;4904687;29;20031;-81
2022/01/29 10:17:34;;;;;;;10.32;5.15;;;;;;;;;;4903106;29;20035;-80
2022/01/29 10:20:06;;;;;;;12.00;5.43;;;;;;;;;;4901261;29;20079;-80
2022/01/29 10:22:35;;;;;;;11.85;5.20;;;;;;;;;;4901485;29;20020;-79
2022/01/29 10:25:03;;;;;;;8.48;4.43;;;;;;;;;;4918571;29;20047;-79
2022/01/29 10:27:28;;;;;;;8.50;4.35;;;;;;;;;;4918000;29;20478;-80
2022/01/29 10:29:59;;;;;;;10.35;4.68;;;;;;;;;;4921139;29;20051;-79
2022/01/29 10:32:25;;;;;;;8.77;4.45;;;;;;;;;;4904361;29;20131;-81
2022/01/29 10:34:54;;;;;;;9.23;4.85;;;;;;;;;;4917055;29;20028;-78
2022/01/29 10:37:20;;;;;;;10.48;4.60;;;;;;;;;;4910819;29;20079;-78
2022/01/29 10:39:56;;;;;;;9.27;4.50;;;;;;;;;;4922443;29;20087;-78
2022/01/29 10:42:32;;;;;;;7.95;3.75;;;;;;;;;;4901525;29;20044;-79
2022/01/29 10:45:02;;;;;;;8.90;3.95;;;;;;;;;;4925844;29;20101;-79
2022/01/29 10:47:28;;;;;;;10.77;3.28;;;;;;;;;;4925841;29;20513;-77
2022/01/29 10:49:55;;;;;;;9.02;3.28;;;;;;;;;;4925934;29;20028;-77
2022/01/29 10:52:28;;;;;;;10.00;3.65;;;;;;;;;;4919697;29;20073;-77
2022/01/29 10:54:59;;;;;;;6.72;2.95;;;;;;;;;;4916648;29;20028;-78
2022/01/29 10:57:29;;;;;;;5.57;3.20;;;;;;;;;;4925453;29;20540;-77
2022/01/29 10:59:54;;;;;;;5.93;2.85;;;;;;;;;;4925594;29;20351;-78
2022/01/29 11:02:26;;;;;;;6.93;3.60;;;;;;;;;;4932490;29;20471;-78
2022/01/29 11:04:51;;;;;;;7.28;3.13;;;;;;;;;;4931516;29;20485;-77
2022/01/29 11:07:18;;;;;;;5.88;3.38;;;;;;;;;;4923408;29;20013;-78
2022/01/29 11:09:45;;;;;;;5.22;2.72;;;;;;;;;;4947388;29;20055;-79
2022/01/29 11:12:11;;;;;;;5.10;2.08;;;;;;;;;;4923817;29;20501;-78
2022/01/29 11:14:37;;;;;;;7.57;3.15;;;;;;;;;;4936811;29;20024;-76
2022/01/29 11:17:02;;;;;;;6.85;2.97;;;;;;;;;;4925531;29;20105;-77
2022/01/29 11:19:28;;;;;;;4.57;1.90;;;;;;;;;;4933587;29;20390;-78
2022/01/29 11:21:54;;;;;;;3.65;1.70;;;;;;;;;;4930674;29;20031;-77
2022/01/29 11:24:21;;;;;;;5.53;2.42;;;;;;;;;;4924926;29;20025;-76
2022/01/29 11:26:46;;;;;;;5.53;2.60;;;;;;;;;;4927685;29;20038;-77
2022/01/29 11:29:29;;;;;;;3.53;1.63;;;;;;;;;;4922757;29;20024;-77
2022/01/29 11:32:13;;;;;;;4.10;2.28;;;;;;;;;;4903147;29;20477;-74
2022/01/29 11:34:57;;;;;;;4.85;1.70;;;;;;;;;;4923898;29;20031;-77
2022/01/29 11:37:36;;;;;;;4.03;1.90;;;;;;;;;;4912086;29;20065;-76
2022/01/29 11:40:20;;;;;;;3.30;1.05;;;;;;;;;;4927477;29;20027;-78
2022/01/29 11:43:07;;;;;;;3.22;1.60;;;;;;;;;;4919824;29;20024;-77
2022/01/29 11:45:38;;;;;;;5.05;2.03;;;;;;;;;;4909886;29;20034;-77
2022/01/29 11:48:04;;;;;;;3.20;1.50;;;;;;;;;;4926040;29;20025;-76
2022/01/29 11:50:29;;;;;;;2.80;1.40;;;;;;;;;;4927870;29;20035;-76
2022/01/29 11:52:55;;;;;;;3.16;1.20;;;;;;;;;;4925904;29;20024;-77
2022/01/29 11:55:40;;;;;;;3.03;1.50;;;;;;;;;;4920627;29;20034;-77
2022/01/29 11:58:15;;;;;;;3.38;1.67;;;;;;;;;;4905249;29;20120;-77
2022/01/29 12:00:41;;;;;;;3.13;1.40;;;;;;;;;;4929770;29;20027;-78
2022/01/29 12:03:07;;;;;;;3.47;1.70;;;;;;;;;;4916338;29;20059;-78
2022/01/29 12:05:58;;;;;;;4.70;1.65;;;;;;;;;;4928863;29;20674;-77
2022/01/29 12:08:23;;;;;;;3.03;1.50;;;;;;;;;;4928218;29;20039;-76
2022/01/29 12:10:56;;;;;;;5.30;2.03;;;;;;;;;;4929311;29;20024;-76
2022/01/29 12:13:21;;;;;;;3.15;1.48;;;;;;;;;;4927512;29;20026;-78
2022/01/29 12:15:46;;;;;;;3.80;1.50;;;;;;;;;;4926268;29;20450;-77
2022/01/29 12:18:29;;;;;;;4.25;1.63;;;;;;;;;;4909439;29;20020;-77
2022/01/29 12:20:54;;;;;;;2.03;1.08;;;;;;;;;;4913774;29;20083;-75
2022/01/29 12:23:19;;;;;;;2.78;1.45;;;;;;;;;;4928815;29;20431;-77
2022/01/29 12:25:55;;;;;;;2.50;1.42;;;;;;;;;;4936047;29;20484;-78
2022/01/29 12:28:21;;;;;;;2.95;1.40;;;;;;;;;;4912143;29;20078;-77
2022/01/29 12:30:46;;;;;;;3.60;1.33;;;;;;;;;;4929117;29;20024;-76
2022/01/29 12:33:16;;;;;;;3.05;1.30;;;;;;;;;;4928202;29;20059;-78
2022/01/29 12:35:50;;;;;;;4.47;1.55;;;;;;;;;;4925101;29;20082;-76
2022/01/29 12:38:17;;;;;;;3.08;1.55;;;;;;;;;;4925744;29;20020;-76
2022/01/29 12:40:50;;;;;;;3.17;1.60;;;;;;;;;;4917307;29;20552;-76
2022/01/29 12:43:23;;;;;;;3.92;1.85;;;;;;;;;;4925005;29;20532;-75
2022/01/29 12:45:49;;;;;;;3.85;1.75;;;;;;;;;;4902244;29;20438;-78
2022/01/29 12:48:14;;;;;;;3.38;1.77;;;;;;;;;;4925057;29;20098;-78
2022/01/29 12:50:41;;;;;;;3.92;1.80;;;;;;;;;;4925013;29;20163;-77
2022/01/29 12:53:09;;;;;;;3.70;1.75;;;;;;;;;;4923795;29;20477;-76
2022/01/29 12:55:34;;;;;;;3.33;1.60;;;;;;;;;;4926978;29;20023;-77
2022/01/29 12:57:59;;;;;;;3.20;1.48;;;;;;;;;;4925777;29;20497;-78
2022/01/29 13:00:24;;;;;;;3.35;1.73;;;;;;;;;;4918291;29;20020;-77
2022/01/29 13:02:50;;;;;;;5.43;1.92;;;;;;;;;;4929408;29;20458;-78
2022/01/29 13:05:15;;;;;;;3.60;1.55;;;;;;;;;;4926111;29;20557;-77
2022/01/29 13:07:40;;;;;;;3.65;1.92;;;;;;;;;;4908370;29;20087;-76
2022/01/29 13:10:07;;;;;;;4.22;1.90;;;;;;;;;;4911445;29;20092;-76
2022/01/29 13:12:39;;;;;;;5.43;2.15;;;;;;;;;;4911605;29;20028;-77
2022/01/29 13:15:05;;;;;;;2.50;1.33;;;;;;;;;;4916440;29;20058;-77
2022/01/29 13:17:30;;;;;;;3.72;1.77;;;;;;;;;;4918838;29;20493;-77
2022/01/29 13:19:55;;;;;;;3.53;1.70;;;;;;;;;;4923143;29;20458;-76
2022/01/29 13:22:21;;;;;;;6.35;2.20;;;;;;;;;;4919858;29;20470;-76
2022/01/29 13:24:50;;;;;;;4.40;2.40;;;;;;;;;;4924425;29;20039;-75
2022/01/29 13:27:24;;;;;;;3.90;2.13;;;;;;;;;;4912254;29;20017;-76
2022/01/29 13:29:59;;;;;;;7.50;2.10;;;;;;;;;;4937945;29;20023;-77
2022/01/29 13:32:31;;;;;;;2.88;1.60;;;;;;;;;;4910457;29;20035;-76
2022/01/29 13:34:58;;;;;;;2.53;1.40;;;;;;;;;;4908103;29;20042;-77
2022/01/29 13:37:30;;;;;;;4.22;1.58;;;;;;;;;;4924338;29;20508;-76
2022/01/29 13:39:56;;;;;;;3.95;1.83;;;;;;;;;;4927840;29;20488;-77
2022/01/29 13:42:23;;;;;;;4.28;1.85;;;;;;;;;;4922595;29;20020;-77
2022/01/29 13:45:26;;;;;;;4.90;1.70;;;;;;;;;;4922208;29;20026;-76
2022/01/29 13:48:13;;;;;;;3.47;1.83;;;;;;;;;;4883940;29;20024;-77
2022/01/29 13:50:38;;;;;;;3.25;1.77;;;;;;;;;;4885637;29;20028;-76
2022/01/29 13:53:10;;;;;;;3.40;1.48;;;;;;;;;;4883927;29;20036;-76
2022/01/29 13:55:37;;;;;;;3.05;1.58;;;;;;;;;;4870289;29;20191;-77
2022/01/29 13:58:07;;;;;;;3.58;1.70;;;;;;;;;;4894316;29;20073;-77
2022/01/29 14:00:50;;;;;;;3.55;1.75;;;;;;;;;;4894223;29;20028;-78
2022/01/29 14:03:16;;;;;;;3.42;1.50;;;;;;;;;;4893666;29;20029;-77
2022/01/29 14:05:41;;;;;;;5.13;2.10;;;;;;;;;;4894491;29;20415;-76
2022/01/29 14:08:23;;;;;;;4.07;2.00;;;;;;;;;;4894201;29;20541;-76
2022/01/29 14:10:58;;;;;;;3.88;1.90;;;;;;;;;;4886402;29;20489;-76
2022/01/29 14:13:29;;;;;;;4.05;1.85;;;;;;;;;;4893658;29;20179;-77
2022/01/29 14:15:54;;;;;;;3.40;1.50;;;;;;;;;;4894685;29;20051;-77
2022/01/29 14:18:19;;;;;;;5.47;2.20;;;;;;;;;;4891126;29;20032;-77
2022/01/29 14:20:44;;;;;;;5.03;1.77;;;;;;;;;;4900719;29;20112;-76
2022/01/29 14:23:10;;;;;;;5.50;2.35;;;;;;;;;;4896197;29;20513;-76
2022/01/29 14:25:35;;;;;;;3.90;1.80;;;;;;;;;;4897145;29;20024;-75
2022/01/29 14:28:00;;;;;;;4.60;1.45;;;;;;;;;;4897180;29;20025;-77
2022/01/29 14:30:27;;;;;;;3.38;1.80;;;;;;;;;;4915863;29;20507;-78
2022/01/29 14:32:53;;;;;;;8.93;2.67;;;;;;;;;;4900459;29;20031;-76
2022/01/29 14:35:18;;;;;;;3.05;1.48;;;;;;;;;;4917160;29;20024;-77
2022/01/29 14:37:43;;;;;;;5.00;1.95;;;;;;;;;;4915649;29;20095;-77
2022/01/29 14:40:10;;;;;;;4.18;2.03;;;;;;;;;;4898493;29;20029;-77
2022/01/29 14:42:36;;;;;;;5.60;2.05;;;;;;;;;;4918797;29;20028;-76
2022/01/29 14:45:02;;;;;;;4.68;1.90;;;;;;;;;;4904706;29;20055;-77
2022/01/29 14:47:29;;;;;;;3.08;1.60;;;;;;;;;;4897975;29;20044;-76
2022/01/29 14:49:55;;;;;;;5.20;1.70;;;;;;;;;;4935150;29;20082;-76